Flight Track Log - Related Links

Times and Time Zones

All times are in EDT time to prevent confusion due to time zone crossing. See the N658DS flight status page for this flight to view local times or setup timezone preferences in your user account.

Time Position Orientation Groundspeed Altitude Reporting Facility
EDT Latitude Longitude Course Direction KTS MPH feet Rate Location/Type
Fri 01:29:41 PM 27.9667 -82.9000 360° North 131 151 10,500  Level Tampa TRACON
Fri 01:30:47 PM 28.0000 -82.9000 360° North 133 153 10,500  Level Tampa TRACON
Fri 01:33:01 PM 28.0747 -82.9256 343° North 123 142 10,500  Level Jacksonville Center
Fri 01:34:00 PM 28.1125 -82.9350 348° North 123 142 10,500  Level Jacksonville Center
Fri 01:35:00 PM 28.1458 -82.9419 350° North 123 142 10,500  Level Jacksonville Center
Fri 01:36:01 PM 28.1833 -82.9514 347° North 123 142 10,500  Level Jacksonville Center
Fri 01:37:00 PM 28.2189 -82.9539 356° North 123 142 10,500  Level Jacksonville Center
Fri 01:38:00 PM 28.2564 -82.9539 360° North 123 142 10,500  Level Jacksonville Center
Fri 01:39:00 PM 28.2939 -82.9514 North 123 142 10,500  Level Jacksonville Center
Fri 01:40:00 PM 28.3272 -82.9586 349° North 123 142 10,500  Level Jacksonville Center
Fri 01:41:00 PM 28.3628 -82.9658 350° North 123 142 10,500  Level Jacksonville Center
Fri 01:42:01 PM 28.3983 -82.9706 353° North 123 142 10,500  Level Jacksonville Center
Fri 01:43:00 PM 28.4358 -82.9681 North 123 142 10,500  Level Jacksonville Center
Fri 01:44:00 PM 28.4714 -82.9586 13° North 124 143 10,500  Level Jacksonville Center
Fri 01:45:01 PM 28.5047 -82.9469 17° North 124 143 10,500  Level Jacksonville Center
Fri 01:46:00 PM 28.5381 -82.9303 24° Northeast 124 143 10,500  Level Jacksonville Center
Fri 01:47:00 PM 28.5756 -82.9256 North 130 150 10,500  Level Jacksonville Center
Fri 01:48:01 PM 28.6089 -82.9281 356° North 125 144 10,500  Level Jacksonville Center
Fri 01:49:01 PM 28.6467 -82.9328 354° North 125 144 10,500  Level Jacksonville Center
Fri 01:50:01 PM 28.6800 -82.9447 343° North 120 138 10,500  Level Jacksonville Center
Fri 01:51:01 PM 28.7175 -82.9542 348° North 125 144 10,500  Level Jacksonville Center
Fri 01:52:00 PM 28.7489 -82.9683 338° Northwest 125 144 10,500  Level Jacksonville Center
Fri 01:53:00 PM 28.7844 -82.9778 347° North 125 144 10,500  Level Jacksonville Center
Fri 01:54:00 PM 28.8178 -82.9897 343° North 125 144 10,500  Level Jacksonville Center
Fri 01:55:00 PM 28.8531 -82.9992 347° North 125 144 10,500  Level Jacksonville Center
Fri 01:56:00 PM 28.8844 -83.0136 338° Northwest 125 144 10,500  Level Jacksonville Center
Fri 01:57:01 PM 28.9178 -83.0256 343° North 125 144 10,500  Level Jacksonville Center
Fri 01:58:01 PM 28.9553 -83.0397 342° North 131 151 10,500  Level Jacksonville Center
Fri 01:59:01 PM 28.9889 -83.0492 346° North 131 151 10,500  Level Jacksonville Center
Fri 02:00:00 PM 29.0242 -83.0636 340° North 131 151 10,500  Level Jacksonville Center
Fri 02:01:00 PM 29.0619 -83.0731 348° North 131 151 10,500  Level Jacksonville Center
Fri 02:02:01 PM 29.0953 -83.0850 343° North 131 151 10,500  Level Jacksonville Center
Fri 02:03:00 PM 29.1264 -83.1089 326° Northwest 131 151 10,500  Level Jacksonville Center
Fri 02:04:00 PM 29.1556 -83.1328 324° Northwest 131 151 10,500  Level Jacksonville Center
Fri 02:05:00 PM 29.1847 -83.1542 327° Northwest 131 151 10,500  Level Jacksonville Center
Fri 02:06:01 PM 29.2161 -83.1781 326° Northwest 131 151 10,500  Level Jacksonville Center
Fri 02:07:01 PM 29.2472 -83.1994 329° Northwest 126 145 10,500  Level Jacksonville Center
Fri 02:08:01 PM 29.2786 -83.2211 329° Northwest 126 145 10,500  Level Jacksonville Center
Fri 02:09:01 PM 29.3119 -83.2378 336° Northwest 126 145 10,500  Level Jacksonville Center
Fri 02:10:01 PM 29.3494 -83.2572 336° Northwest 126 145 10,500  Level Jacksonville Center
Fri 02:11:00 PM 29.3786 -83.2786 327° Northwest 126 145 10,500  Level Jacksonville Center
Fri 02:12:01 PM 29.4100 -83.3025 326° Northwest 126 145 10,500 -100 Level Jacksonville Center
Fri 02:13:00 PM 29.4369 -83.3289 320° Northwest 121 139 10,300 -250 Descending Jacksonville Center
Fri 02:14:01 PM 29.4639 -83.3578 317° Northwest 127 146 10,000 -149 Descending Jacksonville Center
Fri 02:15:01 PM 29.4931 -83.3817 325° Northwest 132 152 10,000 -50 Level Jacksonville Center
Fri 02:16:01 PM 29.5222 -83.4033 327° Northwest 132 152 9,900 -454 Descending Jacksonville Center
Fri 02:17:00 PM 29.5639 -83.4131 349° North 132 152 9,100 -850 Descending Jacksonville Center
Fri 02:18:01 PM 29.6014 -83.4300 339° North 137 158 8,200 -800 Descending Jacksonville Center
Fri 02:19:00 PM 29.6328 -83.4492 332° Northwest 137 158 7,500 -350 Descending Jacksonville Center
Fri 02:20:01 PM 29.6597 -83.4758 319° Northwest 126 145 7,500  Level Jacksonville Center
Fri 02:21:00 PM 29.6825 -83.5047 312° West 121 139 7,500 -100 Level Jacksonville Center
Fri 02:22:01 PM 29.6908 -83.5406 285° West 121 139 7,300 -350 Descending Jacksonville Center
Fri 02:23:00 PM 29.7031 -83.5742 293° West 116 133 6,800 -400 Descending Jacksonville Center
Fri 02:24:01 PM 29.7281 -83.6078 311° West 121 139 6,500 -149 Descending Jacksonville Center
Fri 02:25:01 PM 29.7444 -83.6367 303° West 121 139 6,500  Level Jacksonville Center
Fri 02:26:01 PM 29.7672 -83.6703 308° West 121 139 6,500  Level Jacksonville Center
Fri 02:27:01 PM 29.7858 -83.7014 305° West 121 139 6,500  Level Jacksonville Center
Fri 02:28:00 PM 29.8022 -83.7350 299° West 121 139 6,500  Level Jacksonville Center
Fri 02:29:01 PM 29.8167 -83.7686 296° West 121 139 6,500  Level Jacksonville Center
Fri 02:30:01 PM 29.8311 -83.8000 298° West 121 139 6,500  Level Jacksonville Center
Fri 02:31:01 PM 29.8433 -83.8311 294° West 116 133 6,500  Level Jacksonville Center
Fri 02:32:01 PM 29.8556 -83.8672 291° West 116 133 6,500  Level Jacksonville Center
Fri 02:33:01 PM 29.8700 -83.9008 296° West 116 133 6,500  Level Jacksonville Center
Fri 02:34:01 PM 29.8864 -83.9322 301° West 116 133 6,500  Level Jacksonville Center
Fri 02:36:00 PM 29.9430 -83.9686 331° Northwest  Level FlightAware Approximate
Fri 02:43:00 PM 30.1426 -84.0975 331° Northwest  Level FlightAware Approximate
Fri 02:44:00 PM 30.1711 -84.1159 331° Northwest  Level FlightAware Approximate
Fri 02:45:00 PM 30.1996 -84.1344 331° Northwest  Level FlightAware Approximate
Fri 02:46:00 PM 30.2282 -84.1528 331° Northwest  Level FlightAware Approximate
Fri 02:47:00 PM 30.2567 -84.1713 331° Northwest  Level FlightAware Approximate
Fri 02:48:00 PM 30.2852 -84.1898 331° Northwest  Level FlightAware Approximate
Fri 02:49:00 PM 30.3137 -84.2083 331° Northwest  Level FlightAware Approximate
Fri 02:50:00 PM 30.3422 -84.2268 331° Northwest  Level FlightAware Approximate
Fri 02:51:00 PM 30.3706 -84.2453 331° Northwest  Level FlightAware Approximate
Fri 02:52:00 PM 30.3991 -84.2639 331° Northwest  Level FlightAware Approximate
Fri 02:53:00 PM 30.4276 -84.2824 331° Northwest  Level FlightAware Approximate
Fri 02:54:00 PM 30.4561 -84.3009 331° Northwest  Level FlightAware Approximate
Fri 02:55:00 PM 30.4846 -84.3195 331° Northwest  Level FlightAware Approximate
Fri 02:56:00 PM 30.5131 -84.3381 331° Northwest  Level FlightAware Approximate
Fri 02:57:00 PM 30.5415 -84.3567 331° Northwest  Level FlightAware Approximate
Fri 02:58:00 PM 30.5700 -84.3753 331° Northwest  Level FlightAware Approximate
Fri 02:59:00 PM 30.5985 -84.3939 331° Northwest  Level FlightAware Approximate
Fri 03:00:00 PM 30.6270 -84.4125 331° Northwest  Level FlightAware Approximate
Fri 03:01:00 PM 30.6557 -84.4309 331° Northwest  Level FlightAware Approximate
Fri 03:02:00 PM 30.6844 -84.4491 331° Northwest  Level FlightAware Approximate
Fri 03:03:00 PM 30.7130 -84.4673 331° Northwest  Level FlightAware Approximate
Fri 03:04:00 PM 30.7417 -84.4856 331° Northwest  Level FlightAware Approximate
Fri 03:05:00 PM 30.7703 -84.5038 331° Northwest  Level FlightAware Approximate
Fri 03:06:00 PM 30.7990 -84.5221 331° Northwest  Level FlightAware Approximate
Fri 03:07:00 PM 30.8275 -84.5406 330° Northwest  Level FlightAware Approximate
Fri 03:08:00 PM 30.8559 -84.5594 330° Northwest  Level FlightAware Approximate
Fri 03:09:00 PM 30.8843 -84.5783 330° Northwest  Level FlightAware Approximate
Fri 03:10:00 PM 30.9126 -84.5973 330° Northwest  Level FlightAware Approximate
Fri 03:11:00 PM 30.9410 -84.6162 330° Northwest  Level FlightAware Approximate
Fri 03:12:00 PM 30.9667 -84.6333 330° Northwest  Level FlightAware Approximate
Fri 03:13:00 PM 30.9716 -84.6369 330° Northwest  Level Estimated
Fri 03:14:00 PM 30.9667 -84.6333 330° Northwest  Level FlightAware Approximate
Fri 03:15:00 PM 30.9716 -84.6369 330° Northwest  Level Estimated
Fri 03:16:00 PM 30.9667 -84.6333 330° Northwest  Level FlightAware Approximate
Fri 03:17:00 PM 30.9716 -84.6369 330° Northwest  Level Estimated
Fri 03:18:00 PM 30.9667 -84.6333 330° Northwest  Level FlightAware Approximate
Fri 03:19:00 PM 30.9716 -84.6369 330° Northwest  Level Estimated
Fri 03:20:00 PM 30.9667 -84.6333 330° Northwest  Level FlightAware Approximate
Fri 03:21:00 PM 30.9716 -84.6369 330° Northwest  Level Estimated
Fri 03:22:00 PM 30.9667 -84.6333 330° Northwest  Level FlightAware Approximate
Fri 03:23:00 PM 30.9716 -84.6369 330° Northwest  Level Estimated
Fri 03:24:00 PM 30.9667 -84.6333 330° Northwest  Level FlightAware Approximate
Fri 03:25:00 PM 30.9716 -84.6369 330° Northwest  Level Estimated
Fri 03:26:00 PM 30.9667 -84.6333 330° Northwest  Level FlightAware Approximate
Fri 03:27:00 PM 30.9716 -84.6369 330° Northwest  Level Estimated

Login

Don't have an account? Register now (free) for customized features, flight alerts, and more!